Arkansaw, WI

9:40 AM CDT on May 24, 2015 (GMT -0500)
SIGHT-SEA-ER II | | Change Station
CLOSE
Current Station
Personal Weather Station
Location: Lake City, MN
Elevation: 728 ft
Nearby Weather Stations

Elev 728 ft 44.47 °N, 92.30 °W | Updated 12 minutes ago

Mostly Cloudy
Mostly Cloudy
64.0 °F
Feels Like 64.0 °F
N
1.0
Wind Variable Wind from SW
Gusts 3.0 mph

Today
High -- | Low -- °F
--% Chance of Precip.
Yesterday
High -- | Low -- °F
Precip. -- in
5:31 AM 8:38 PM
Waxing Crescent, 39% visible
Pressure 30.04 in
Visibility 10.0 miles
Clouds Overcast 7000 ft
Dew Point 56 °F
Humidity 74%
Rainfall 0.00 in
Snow Depth Not available.
UV 2 out of 12
Pollen 5.70 out of 12
Air Quality Not available.
Flu Activity Sporadic
METAR KRGK 241430Z AUTO 13006KT 10SM OVC070 18/11 A3004 RMK AO2

More Conditions Fewer Conditions

Pressure 30.04 in
Visibility 10.0 miles
Clouds Overcast 7000 ft
Dew Point 56 °F
Humidity 74%
Rainfall 0.00 in
Snow Depth Not available.
UV 2 out of 12
Pollen 5.70 out of 12
Air Quality Not available.
Flu Activity Sporadic
METAR KRGK 241430Z AUTO 13006KT 10SM OVC070 18/11 A3004 RMK AO2

More Conditions Fewer Conditions

10-Day Weather Forecast

Almanac

Astronomy

May. 24, 2015 Rise Set
Actual Time
Civil Twilight
Nautical Twilight
Astronomical Twilight
Moon
Length of Visible Light
Length of Day
Tomorrow will be .
, % of the Moon is Illuminated

Today's Extremes

State Highs State Lows

Community

WunderPhotos

Upload Photos

1,823,748 photos uploaded!

WunderBlogs® & News

Nearby

Air Quality

  Air Quality AQ Index Pollutant
Not available.

Snow Depth

Station Depth Elevation

Earthquake Activity

City Distance Mag. Time & Date
Minimum magnitude displayed is 2.5.

Coastal Water Temperatures

Place Temperature

Stations

Nearby Weather Stations

Station Location Temp. Windchill Dew Point Humidity Wind Precip. Elev Updated Type